createdAt,value
2024-05-09T00:02:35.190Z,11.08
2024-05-09T00:05:40.146Z,11.11
2024-05-09T00:08:44.972Z,11.11
2024-05-09T00:11:49.891Z,11.16
2024-05-09T00:14:54.501Z,11.18
2024-05-09T00:18:02.139Z,11.21
2024-05-09T00:21:07.791Z,11.15
2024-05-09T00:24:12.767Z,11.07
2024-05-09T00:27:18.452Z,11.04
2024-05-09T00:30:31.623Z,11.00
2024-05-09T00:33:42.633Z,11.00
2024-05-09T00:36:47.606Z,11.00
2024-05-09T00:39:52.190Z,11.03
2024-05-09T00:42:56.878Z,11.08
2024-05-09T00:46:02.104Z,11.05
2024-05-09T00:49:09.990Z,11.00
2024-05-09T00:52:14.714Z,10.90
2024-05-09T00:55:20.424Z,10.80
2024-05-09T00:58:27.055Z,10.70
2024-05-09T01:01:32.355Z,10.65
2024-05-09T01:04:39.821Z,10.62
2024-05-09T01:07:46.024Z,10.59
2024-05-09T01:10:50.971Z,10.54
2024-05-09T01:13:55.824Z,10.46
2024-05-09T01:17:00.709Z,10.41
2024-05-09T01:20:10.978Z,10.31
2024-05-09T01:23:23.784Z,10.25
2024-05-09T01:26:28.751Z,10.19
2024-05-09T01:29:33.696Z,10.17
2024-05-09T01:32:38.841Z,10.17
2024-05-09T01:35:43.741Z,10.10
2024-05-09T01:38:51.186Z,10.09
2024-05-09T01:41:56.021Z,10.04
2024-05-09T01:45:00.772Z,10.01
2024-05-09T01:48:07.904Z,10.02
2024-05-09T01:51:13.198Z,9.96
2024-05-09T01:54:20.723Z,9.95
2024-05-09T01:57:25.422Z,9.89
2024-05-09T02:00:38.620Z,9.90
2024-05-09T02:03:47.893Z,9.85
2024-05-09T02:06:52.708Z,9.82
2024-05-09T02:10:00.293Z,9.76
2024-05-09T02:13:04.928Z,9.75
2024-05-09T02:16:14.177Z,9.73
2024-05-09T02:19:19.001Z,9.68
2024-05-09T02:22:23.732Z,9.68
2024-05-09T02:25:31.011Z,9.67
2024-05-09T02:28:35.654Z,9.67
2024-05-09T02:31:40.234Z,9.71
2024-05-09T02:34:44.861Z,9.70
2024-05-09T02:37:49.541Z,9.67
2024-05-09T02:40:54.294Z,9.68
2024-05-09T02:43:59.033Z,9.64
2024-05-09T02:47:01.202Z,9.57
2024-05-09T02:50:07.870Z,9.52
2024-05-09T02:53:11.417Z,9.48
2024-05-09T02:56:19.008Z,9.50
2024-05-09T02:59:21.432Z,9.49
2024-05-09T03:02:27.085Z,9.53
2024-05-09T03:05:29.240Z,9.47
2024-05-09T03:08:34.156Z,9.45
2024-05-09T03:11:41.654Z,9.41
2024-05-09T03:14:43.610Z,9.35
2024-05-09T03:17:48.383Z,9.33
2024-05-09T03:20:50.663Z,9.32
2024-05-09T03:23:55.375Z,9.29
2024-05-09T03:27:02.724Z,9.27
2024-05-09T03:30:07.363Z,9.27
2024-05-09T03:33:15.284Z,9.30
2024-05-09T03:36:18.486Z,9.32
2024-05-09T03:39:23.175Z,9.28
2024-05-09T03:42:30.806Z,9.27
2024-05-09T03:45:35.532Z,9.27
2024-05-09T03:48:37.575Z,9.24
2024-05-09T03:51:42.479Z,9.19
2024-05-09T03:54:45.679Z,9.21
2024-05-09T03:57:53.086Z,9.23
2024-05-09T04:00:55.093Z,9.16
2024-05-09T04:03:59.622Z,9.14
2024-05-09T04:07:01.532Z,9.17
2024-05-09T04:10:08.978Z,9.15
2024-05-09T04:13:15.788Z,9.09
2024-05-09T04:16:20.492Z,9.01
2024-05-09T04:19:22.712Z,9.01
2024-05-09T04:22:27.557Z,9.02
2024-05-09T04:25:32.116Z,9.06
2024-05-09T04:28:36.814Z,9.06
2024-05-09T04:31:41.473Z,9.07
2024-05-09T04:34:43.984Z,9.07
2024-05-09T04:37:48.959Z,9.08
2024-05-09T04:40:50.993Z,9.12
2024-05-09T04:43:58.315Z,9.16
2024-05-09T04:47:00.423Z,9.20
2024-05-09T04:50:05.743Z,9.26
2024-05-09T04:53:11.623Z,9.24
2024-05-09T04:56:16.415Z,9.32
2024-05-09T04:59:24.377Z,9.39
2024-05-09T05:02:26.456Z,9.43
2024-05-09T05:05:31.145Z,9.48
2024-05-09T05:08:34.519Z,9.64
2024-05-09T05:11:39.197Z,9.70
2024-05-09T05:14:43.851Z,9.83
2024-05-09T05:17:48.711Z,9.95
2024-05-09T05:20:50.838Z,10.06
2024-05-09T05:23:55.433Z,10.16
2024-05-09T05:26:57.314Z,10.28
2024-05-09T05:30:07.370Z,10.39
2024-05-09T05:33:12.969Z,10.56
2024-05-09T05:36:17.827Z,10.66
2024-05-09T05:39:22.339Z,10.72
2024-05-09T05:42:24.517Z,10.78
2024-05-09T05:45:31.787Z,10.85
2024-05-09T05:48:36.442Z,10.98
2024-05-09T05:51:38.471Z,11.05
2024-05-09T05:54:42.986Z,11.15
2024-05-09T05:57:45.062Z,11.22
2024-05-09T06:00:54.007Z,11.34
2024-05-09T06:03:56.142Z,11.42
2024-05-09T06:07:00.773Z,11.60
2024-05-09T06:10:09.309Z,11.66
2024-05-09T06:13:16.044Z,11.84
2024-05-09T06:16:23.404Z,12.00
2024-05-09T06:19:25.400Z,12.18
2024-05-09T06:22:30.149Z,12.27
2024-05-09T06:25:32.350Z,12.44
2024-05-09T06:28:38.346Z,12.58
2024-05-09T06:31:43.496Z,12.80
2024-05-09T06:34:49.580Z,12.95
2024-05-09T06:37:51.691Z,13.07
2024-05-09T06:40:57.179Z,13.22
2024-05-09T06:44:01.841Z,13.32
2024-05-09T06:47:09.275Z,13.54
2024-05-09T06:50:19.695Z,13.64
2024-05-09T06:53:28.240Z,13.98
2024-05-09T06:56:32.803Z,14.26
2024-05-09T06:59:37.533Z,14.56
2024-05-09T07:02:42.455Z,14.85
2024-05-09T07:05:48.474Z,15.16
2024-05-09T07:08:54.135Z,15.46
2024-05-09T07:11:58.721Z,15.75
2024-05-09T07:15:00.632Z,16.04
2024-05-09T07:18:15.663Z,16.40
2024-05-09T07:21:20.894Z,16.61
2024-05-09T07:24:22.925Z,16.85
2024-05-09T07:27:27.969Z,17.04
2024-05-09T07:30:33.581Z,17.25
2024-05-09T07:33:41.999Z,17.06
2024-05-09T07:36:43.945Z,17.08
2024-05-09T07:39:48.544Z,16.93
2024-05-09T07:42:50.538Z,16.99
2024-05-09T07:45:57.105Z,17.19
2024-05-09T07:50:53.268Z,17.29
2024-05-09T07:53:32.397Z,17.14
2024-05-09T07:55:50.135Z,17.04
2024-05-09T07:58:55.756Z,17.25
2024-05-09T08:01:57.942Z,17.33
2024-05-09T08:05:05.707Z,17.44
2024-05-09T08:08:08.053Z,17.63
2024-05-09T08:11:12.716Z,17.62
2024-05-09T08:14:17.304Z,17.79
2024-05-09T08:17:19.428Z,17.89
2024-05-09T08:20:31.182Z,17.77
2024-05-09T08:23:39.645Z,17.82
2024-05-09T08:26:41.515Z,17.73
2024-05-09T08:29:46.127Z,17.81
2024-05-09T08:32:48.395Z,17.86
2024-05-09T08:35:55.725Z,17.76
2024-05-09T08:39:00.234Z,17.70
2024-05-09T08:42:02.719Z,17.85
2024-05-09T08:45:07.876Z,17.92
2024-05-09T08:48:15.703Z,18.02
2024-05-09T08:51:23.907Z,18.20
2024-05-09T08:54:25.808Z,18.15
2024-05-09T08:57:32.713Z,18.30
2024-05-09T09:00:40.577Z,18.52
2024-05-09T09:03:43.797Z,18.70
2024-05-09T09:06:56.562Z,18.88
2024-05-09T09:10:00.731Z,19.03
2024-05-09T09:13:09.534Z,19.21
2024-05-09T09:16:12.937Z,19.34
2024-05-09T09:19:17.988Z,19.52
2024-05-09T09:22:22.605Z,19.56
2024-05-09T09:25:27.126Z,19.51
2024-05-09T09:28:32.202Z,19.69
2024-05-09T09:31:34.390Z,19.87
2024-05-09T09:34:39.021Z,20.04
2024-05-09T09:37:45.873Z,20.17
2024-05-09T09:40:50.960Z,20.23
2024-05-09T09:43:54.322Z,20.09
2024-05-09T09:46:59.757Z,20.02
2024-05-09T09:50:05.462Z,20.21
2024-05-09T09:53:17.163Z,20.32
2024-05-09T09:56:21.283Z,20.23
2024-05-09T09:59:25.868Z,19.86
2024-05-09T10:02:30.444Z,19.54
2024-05-09T10:05:33.828Z,19.56
2024-05-09T10:08:42.361Z,19.39
2024-05-09T10:11:49.194Z,19.55
2024-05-09T10:14:57.280Z,19.86
2024-05-09T10:18:07.882Z,19.76
2024-05-09T10:21:19.127Z,20.03
2024-05-09T10:24:23.618Z,19.82
2024-05-09T10:27:29.897Z,20.08
2024-05-09T10:30:36.094Z,20.41
2024-05-09T10:33:42.619Z,20.55
2024-05-09T10:36:44.734Z,20.67
2024-05-09T10:39:52.236Z,20.60
2024-05-09T10:42:55.449Z,20.67
2024-05-09T10:46:00.237Z,21.01
2024-05-09T10:49:07.762Z,21.25
2024-05-09T10:52:12.609Z,21.25
2024-05-09T10:55:17.245Z,20.81
2024-05-09T10:58:21.822Z,20.51
2024-05-09T11:01:23.779Z,20.15
2024-05-09T11:04:28.418Z,19.98
2024-05-09T11:07:30.743Z,19.88
2024-05-09T11:10:38.031Z,19.90
2024-05-09T11:13:40.958Z,20.21
2024-05-09T11:16:45.761Z,20.60
2024-05-09T11:19:50.328Z,20.75
2024-05-09T11:22:55.169Z,21.15
2024-05-09T11:25:59.666Z,21.35
2024-05-09T11:29:04.191Z,21.43
2024-05-09T11:32:07.412Z,21.40
2024-05-09T11:35:11.975Z,21.63
2024-05-09T11:38:14.233Z,21.47
2024-05-09T11:41:24.620Z,21.14
2024-05-09T11:44:26.999Z,20.15
2024-05-09T11:47:31.683Z,19.99
2024-05-09T11:50:36.516Z,20.45
2024-05-09T11:53:38.467Z,20.99
2024-05-09T11:56:45.861Z,21.24
2024-05-09T11:59:47.768Z,21.67
2024-05-09T12:02:56.206Z,21.46
2024-05-09T12:06:01.026Z,21.35
2024-05-09T12:09:03.050Z,21.04
2024-05-09T12:12:10.545Z,20.77
2024-05-09T12:15:12.671Z,20.51
2024-05-09T12:18:17.293Z,20.32
2024-05-09T12:21:19.186Z,20.65
2024-05-09T12:24:25.086Z,21.15
2024-05-09T12:27:29.705Z,21.47
2024-05-09T12:30:38.374Z,21.75
2024-05-09T12:33:45.118Z,21.63
2024-05-09T12:36:47.174Z,21.60
2024-05-09T12:39:51.784Z,21.36
2024-05-09T12:42:56.581Z,21.12
2024-05-09T12:46:01.711Z,21.22
2024-05-09T12:49:03.939Z,21.28
2024-05-09T12:52:09.318Z,21.16
2024-05-09T12:55:11.583Z,21.06
2024-05-09T12:58:19.228Z,20.63
2024-05-09T13:01:21.579Z,20.25
2024-05-09T13:04:26.388Z,20.42
2024-05-09T13:07:28.666Z,20.59
2024-05-09T13:10:33.726Z,20.58
2024-05-09T13:13:40.923Z,20.35
2024-05-09T13:16:42.960Z,20.26
2024-05-09T13:19:47.483Z,20.10
2024-05-09T13:22:49.499Z,20.11
2024-05-09T13:25:54.123Z,20.28
2024-05-09T13:29:01.442Z,20.76
2024-05-09T13:32:04.581Z,21.22
2024-05-09T13:35:09.463Z,21.80
2024-05-09T13:38:13.847Z,21.96
2024-05-09T13:41:18.410Z,21.58
2024-05-09T13:44:23.080Z,21.18
2024-05-09T13:47:28.007Z,20.82
2024-05-09T13:50:34.526Z,20.55
2024-05-09T13:53:41.087Z,20.39
2024-05-09T13:56:43.000Z,20.66
2024-05-09T13:59:50.347Z,21.12
2024-05-09T14:02:52.336Z,21.47
2024-05-09T14:05:57.191Z,21.63
2024-05-09T14:08:59.204Z,22.03
2024-05-09T14:12:03.842Z,22.27
2024-05-09T14:15:11.473Z,22.48
2024-05-09T14:18:14.422Z,22.65
2024-05-09T14:21:19.439Z,22.77
2024-05-09T14:24:21.344Z,22.81
2024-05-09T14:27:26.052Z,22.78
2024-05-09T14:30:36.536Z,22.70
2024-05-09T14:33:42.860Z,22.52
2024-05-09T14:36:45.560Z,22.12
2024-05-09T14:39:50.223Z,21.75
2024-05-09T14:42:52.130Z,21.53
2024-05-09T14:45:59.553Z,21.28
2024-05-09T14:49:01.708Z,21.51
2024-05-09T14:52:06.916Z,21.84
2024-05-09T14:55:12.423Z,22.14
2024-05-09T14:58:14.621Z,22.35
2024-05-09T15:01:23.981Z,22.53
2024-05-09T15:04:27.094Z,22.75
2024-05-09T15:07:31.987Z,22.91
2024-05-09T15:10:37.553Z,23.02
2024-05-09T15:13:42.506Z,23.22
2024-05-09T15:16:48.668Z,23.34
2024-05-09T15:19:53.289Z,22.77
2024-05-09T15:22:55.423Z,22.11
2024-05-09T15:25:59.898Z,21.37
2024-05-09T15:29:01.866Z,20.98
2024-05-09T15:32:09.662Z,20.70
2024-05-09T15:35:11.892Z,20.83
2024-05-09T15:38:18.355Z,21.20
2024-05-09T15:41:20.484Z,21.64
2024-05-09T15:44:24.920Z,21.97
2024-05-09T15:47:29.664Z,22.18
2024-05-09T15:50:39.165Z,22.31
2024-05-09T15:53:45.903Z,22.31
2024-05-09T15:56:50.884Z,22.35
2024-05-09T15:59:55.484Z,22.40
2024-05-09T16:03:00.098Z,22.20
2024-05-09T16:06:05.587Z,22.22
2024-05-09T16:09:08.155Z,22.25
2024-05-09T16:12:12.730Z,22.24
2024-05-09T16:15:14.856Z,22.11
2024-05-09T16:18:22.255Z,22.08
2024-05-09T16:21:24.155Z,22.03
2024-05-09T16:24:28.749Z,22.01
2024-05-09T16:27:31.057Z,21.95
2024-05-09T16:30:36.465Z,21.87
2024-05-09T16:33:43.899Z,21.71
2024-05-09T16:36:51.201Z,21.57
2024-05-09T16:39:53.275Z,21.35
2024-05-09T16:42:58.473Z,21.25
2024-05-09T16:46:00.553Z,21.11
2024-05-09T16:49:09.021Z,21.01
2024-05-09T16:52:13.542Z,20.89
2024-05-09T16:55:15.988Z,20.74
2024-05-09T16:58:21.070Z,20.66
2024-05-09T17:01:25.796Z,20.62
2024-05-09T17:04:30.551Z,20.53
2024-05-09T17:07:35.525Z,20.47
2024-05-09T17:10:37.606Z,20.38
2024-05-09T17:13:45.213Z,20.31
2024-05-09T17:16:50.471Z,20.22
2024-05-09T17:19:57.642Z,20.15
2024-05-09T17:22:59.576Z,20.08
2024-05-09T17:26:04.192Z,19.94
2024-05-09T17:29:07.965Z,19.80
2024-05-09T17:32:14.699Z,19.72
2024-05-09T17:35:22.183Z,19.56
2024-05-09T17:38:24.220Z,19.42
2024-05-09T17:41:28.699Z,19.31
2024-05-09T17:44:30.687Z,19.23
2024-05-09T17:47:38.283Z,19.14
2024-05-09T17:50:43.113Z,19.05
2024-05-09T17:53:48.026Z,18.95
2024-05-09T17:56:53.314Z,18.89
2024-05-09T17:59:57.784Z,18.83
2024-05-09T18:02:59.796Z,18.73
2024-05-09T18:06:07.504Z,18.60
2024-05-09T18:09:10.169Z,18.43
2024-05-09T18:12:14.868Z,18.30
2024-05-09T18:15:16.768Z,18.11
2024-05-09T18:18:21.552Z,17.93
2024-05-09T18:21:28.894Z,17.77
2024-05-09T18:24:30.826Z,17.61
2024-05-09T18:27:36.435Z,17.44
2024-05-09T18:30:39.152Z,17.29
2024-05-09T18:33:44.241Z,17.11
2024-05-09T18:36:51.922Z,17.01
2024-05-09T18:39:53.892Z,16.87
2024-05-09T18:42:58.472Z,16.76
2024-05-09T18:46:00.412Z,16.54
2024-05-09T18:49:05.057Z,16.41
2024-05-09T18:52:10.358Z,16.26
2024-05-09T18:55:16.028Z,16.14
2024-05-09T18:58:18.397Z,16.02
2024-05-09T19:01:23.114Z,15.90
2024-05-09T19:04:25.280Z,15.84
2024-05-09T19:07:32.802Z,15.71
2024-05-09T19:10:36.082Z,15.61
2024-05-09T19:13:41.125Z,15.56
2024-05-09T19:16:45.856Z,15.48
2024-05-09T19:19:49.235Z,15.43
2024-05-09T19:22:56.455Z,15.35
2024-05-09T19:25:58.360Z,15.25
2024-05-09T19:29:02.895Z,15.18
2024-05-09T19:32:05.312Z,15.11
2024-05-09T19:35:12.578Z,15.02
2024-05-09T19:38:17.144Z,15.00
2024-05-09T19:41:21.757Z,14.97
2024-05-09T19:44:23.616Z,14.91
2024-05-09T19:47:28.882Z,14.87
2024-05-09T19:50:41.185Z,14.83
2024-05-09T19:53:51.116Z,14.77
2024-05-09T19:56:53.908Z,14.71
2024-05-09T19:59:58.411Z,14.65
2024-05-09T20:03:00.518Z,14.66
2024-05-09T20:06:05.775Z,14.61
2024-05-09T20:09:12.983Z,14.58
2024-05-09T20:12:14.929Z,14.53
2024-05-09T20:15:19.465Z,14.46
2024-05-09T20:18:21.419Z,14.40
2024-05-09T20:21:26.241Z,14.32
2024-05-09T20:24:30.835Z,14.27
2024-05-09T20:27:35.386Z,14.18
2024-05-09T20:30:40.126Z,14.16
2024-05-09T20:33:42.133Z,14.05
2024-05-09T20:36:46.789Z,14.01
2024-05-09T20:39:54.173Z,14.01
2024-05-09T20:42:58.841Z,13.92
2024-05-09T20:46:01.638Z,13.88
2024-05-09T20:49:06.386Z,13.83
2024-05-09T20:52:08.601Z,13.81
2024-05-09T20:55:16.368Z,13.78
2024-05-09T20:58:18.363Z,13.74
2024-05-09T21:01:22.958Z,13.68
2024-05-09T21:04:27.735Z,13.55
2024-05-09T21:07:29.859Z,13.54
2024-05-09T21:10:37.863Z,13.48
2024-05-09T21:13:39.967Z,13.47
2024-05-09T21:16:44.744Z,13.43
2024-05-09T21:19:46.736Z,13.38
2024-05-09T21:22:51.221Z,13.30
2024-05-09T21:25:58.338Z,13.28
2024-05-09T21:29:00.372Z,13.23
2024-05-09T21:32:04.925Z,13.17
2024-05-09T21:35:07.323Z,13.11
2024-05-09T21:38:13.514Z,13.06
2024-05-09T21:41:18.431Z,13.04
2024-05-09T21:44:23.404Z,12.95
2024-05-09T21:47:25.769Z,13.01
2024-05-09T21:50:37.039Z,12.95
2024-05-09T21:53:45.408Z,12.89
2024-05-09T21:56:52.596Z,12.85
2024-05-09T21:59:54.499Z,12.77
2024-05-09T22:02:59.071Z,12.72
2024-05-09T22:06:03.706Z,12.67
2024-05-09T22:09:05.732Z,12.66
2024-05-09T22:12:13.045Z,12.63
2024-05-09T22:15:15.086Z,12.57
2024-05-09T22:18:19.730Z,12.54
2024-05-09T22:21:21.747Z,12.51
2024-05-09T22:24:26.336Z,12.51
2024-05-09T22:27:33.507Z,12.47
2024-05-09T22:30:38.782Z,12.42
2024-05-09T22:33:47.831Z,12.38
2024-05-09T22:36:50.527Z,12.36
2024-05-09T22:39:55.497Z,12.28
2024-05-09T22:43:00.257Z,12.22
2024-05-09T22:46:05.767Z,12.23
2024-05-09T22:49:07.870Z,12.19
2024-05-09T22:52:12.446Z,12.16
2024-05-09T22:55:17.166Z,12.18
2024-05-09T22:58:22.742Z,12.14
2024-05-09T23:01:27.559Z,12.09
2024-05-09T23:04:29.606Z,12.04
2024-05-09T23:07:34.219Z,12.01
2024-05-09T23:10:37.904Z,11.93
2024-05-09T23:13:45.664Z,11.89
2024-05-09T23:16:47.704Z,11.86
2024-05-09T23:19:52.300Z,11.89
2024-05-09T23:22:57.057Z,11.92
2024-05-09T23:25:59.075Z,11.87
2024-05-09T23:29:06.298Z,11.81
2024-05-09T23:32:09.479Z,11.76
2024-05-09T23:35:13.984Z,11.82
2024-05-09T23:38:21.749Z,11.76
2024-05-09T23:41:28.045Z,11.74
2024-05-09T23:44:35.618Z,11.68
2024-05-09T23:47:37.661Z,11.67
2024-05-09T23:50:42.388Z,11.66
2024-05-09T23:53:45.086Z,11.58
2024-05-09T23:56:49.551Z,11.55
2024-05-09T23:59:54.181Z,11.51
